Portada
METAR-TAF:

METAR-TAF

Aeroports :

Mysore, Índia

latitud: 12-13-48N, longitud: 76-39-21E, altitud: 715 m

Observació

L'informe es va fer fa 12 minuts, a les 10:00 UTC
Vent 6 kt del Est/Nord-Est
Temperatura 27°C
Humitat 51%
Pressió 1012 hPa
Visibilitat 10 km o més
sense núvols per sota de 1500 mi sense presència de cumulonimbus.

METAR: VOMY 021000Z 07006KT CAVOK 27/16 Q1012

Hora: 15:42 (10:12 UTC)

Pronòstic

L'informe es va fer fa 5 hores i 12 minuts, a les 05:00 UTC
Pronòstic vàlid del 02 a les 06 UTC al 02 a les 15 UTC
Vent 10 kt del Est
Visibilitat: 8000 m
Núvols disperses a una alçada de 1500 ft

TAF: VOMY 020500Z 0206/0215 09010KT 8000 SCT015

Observacions i pronòstics meteorològics de més de 4000 aeroports (METAR i TAF).

Les estacions disponibles són els punts grocs i vermells al mapa.

Posi el ratolí al punt desitjat per veure el nom de l'estació.

Feu clic per veure les observacions i els pronòstics meteorològics.

Per canviar el mapa: feu clic els botons verds amb una creu de color negre per apropar; al botó verd amb un guió per allunyar la imatge; o en les fletxes verdes per a mapes adjacents.


METAR-TAF: